Time,TemperatureF,DewpointF,PressureIn,WindDirection,WindDirectionDegrees,WindSpeedMPH,WindSpeedGustMPH,Humidity,HourlyPrecipIn,Conditions,Clouds,dailyrainin,SoftwareType,DateUTC
2013-09-21 09:54:00,75.0,19.0,-100.00,SE,145,1.0,4.0,12,-99.99,,,-99.99,,2013-09-21 16:54:00,
2013-09-21 11:20:00,71.0,36.0,-100.00,SSW,206,7.0,11.0,28,-99.99,,,-99.99,,2013-09-21 18:20:00,
2013-09-21 11:21:00,71.0,40.0,-100.00,South,188,9.0,12.0,33,-99.99,,,-99.99,,2013-09-21 18:21:00,
2013-09-21 11:52:00,71.0,36.0,-100.00,SSW,206,7.0,11.0,28,-99.99,,,-99.99,,2013-09-21 18:52:00,
2013-09-21 12:02:00,71.0,36.0,-100.00,SSW,206,7.0,11.0,28,-99.99,,,-99.99,,2013-09-21 19:02:00,
2013-09-21 12:11:00,71.0,36.0,-100.00,SSW,206,7.0,11.0,28,-99.99,,,-99.99,,2013-09-21 19:11:00,
2013-09-21 12:52:00,71.0,41.0,-100.00,WNW,300,7.0,15.0,34,-99.99,,,-99.99,,2013-09-21 19:52:00,
2013-09-21 13:21:00,70.0,46.0,-100.00,NW,326,7.0,14.0,42,-99.99,,,-99.99,,2013-09-21 20:21:00,
2013-09-21 13:52:00,72.0,44.0,-100.00,NW,316,5.0,9.0,36,-99.99,,,-99.99,,2013-09-21 20:52:00,
2013-09-21 14:11:00,72.0,44.0,-100.00,NW,304,5.0,11.0,37,-99.99,,,-99.99,,2013-09-21 21:11:00,
2013-09-21 14:54:00,71.0,45.0,-100.00,WNW,291,6.0,14.0,39,-99.99,,,-99.99,,2013-09-21 21:54:00,
2013-09-21 15:53:00,71.0,48.0,-100.00,West,267,4.0,11.0,44,-99.99,,,-99.99,,2013-09-21 22:53:00,
2013-09-21 16:22:00,70.0,47.0,-100.00,West,268,4.0,12.0,44,-99.99,,,-99.99,,2013-09-21 23:22:00,
2013-09-21 17:22:00,68.0,45.0,-100.00,NW,311,4.0,10.0,44,-99.99,,,-99.99,,2013-09-22 00:22:00,
2013-09-21 18:11:00,67.0,48.0,-100.00,WNW,287,4.0,9.0,51,-99.99,,,-99.99,,2013-09-22 01:11:00,
2013-09-21 18:21:00,67.0,48.0,-100.00,WNW,287,4.0,9.0,51,-99.99,,,-99.99,,2013-09-22 01:21:00,
2013-09-21 18:52:00,64.0,50.0,-100.00,WSW,237,2.0,6.0,60,-99.99,,,-99.99,,2013-09-22 01:52:00,
2013-09-21 19:02:00,64.0,50.0,-100.00,WSW,237,2.0,6.0,60,-99.99,,,-99.99,,2013-09-22 02:02:00,
2013-09-21 19:40:00,57.0,53.0,-100.00,WNW,290,2.0,5.0,86,-99.99,,,-99.99,,2013-09-22 02:40:00,
2013-09-21 19:52:00,58.0,53.0,-100.00,WSW,251,2.0,5.0,82,-99.99,,,-99.99,,2013-09-22 02:52:00,
2013-09-21 20:12:00,57.0,53.0,-100.00,WNW,290,2.0,5.0,86,-99.99,,,-99.99,,2013-09-22 03:12:00,
2013-09-21 20:22:00,57.0,53.0,-100.00,WNW,290,2.0,5.0,86,-99.99,,,-99.99,,2013-09-22 03:22:00,
2013-09-21 20:33:00,57.0,53.0,-100.00,WNW,290,2.0,5.0,86,-99.99,,,-99.99,,2013-09-22 03:33:00,
2013-09-21 21:02:00,-999.0,-99.9,-100.00,WNW,297,5.0,10.0,-999,-99.99,,,-99.99,,2013-09-22 04:02:00,
2013-09-21 21:23:00,55.0,52.0,-100.00,WNW,291,3.0,7.0,88,-99.99,,,-99.99,,2013-09-22 04:23:00,
2013-09-21 21:33:00,55.0,52.0,-100.00,WNW,291,3.0,7.0,88,-99.99,,,-99.99,,2013-09-22 04:33:00,
2013-09-21 21:54:00,54.0,51.0,-100.00,NNW,333,1.0,2.0,88,-99.99,,,-99.99,,2013-09-22 04:54:00,
2013-09-21 22:10:00,54.0,51.0,-100.00,NW,315,2.0,6.0,90,-99.99,,,-99.99,,2013-09-22 05:10:00,
2013-09-21 22:43:00,54.0,51.0,-100.00,NW,315,2.0,6.0,90,-99.99,,,-99.99,,2013-09-22 05:43:00,
2013-09-21 22:53:00,54.0,51.0,-100.00,NW,315,2.0,6.0,90,-99.99,,,-99.99,,2013-09-22 05:53:00,
2013-09-21 23:02:00,54.0,51.0,-100.00,NW,315,2.0,6.0,90,-99.99,,,-99.99,,2013-09-22 06:02:00,
2013-09-21 23:42:00,54.0,51.0,-100.00,West,264,3.0,8.0,88,-99.99,,,-99.99,,2013-09-22 06:42:00,
2013-09-21 23:52:00,54.0,51.0,-100.00,WNW,286,4.0,10.0,91,-99.99,,,-99.99,,2013-09-22 06:52:00,